Time;durP1;ratioP1;P1;durP2;ratioP2;P2;SDS_P1;SDS_P2;PMS_P1;PMS_P2;Temp;Humidity;BMP_temperature;BMP_pressure;BME280_temperature;BME280_humidity;BME280_pressure;Samples;Min_cycle;Max_cycle;Signal;HPM_P1;HPM_P2
2022/06/21 00:00:06;;;;;;;9.73;3.05;;;9.70;99.90;;;;;;4992135;28;20022;-77
2022/06/21 00:02:32;;;;;;;7.95;3.42;;;9.60;99.90;;;;;;4988863;28;20098;-77
2022/06/21 00:04:58;;;;;;;5.22;3.00;;;9.50;99.90;;;;;;4990458;28;21327;-77
2022/06/21 00:07:28;;;;;;;7.55;3.40;;;9.40;99.90;;;;;;4990686;28;20018;-77
2022/06/21 00:09:54;;;;;;;7.72;3.13;;;9.40;99.90;;;;;;4991826;28;20062;-77
2022/06/21 00:12:21;;;;;;;4.50;2.95;;;9.30;99.90;;;;;;4991885;28;20122;-77
2022/06/21 00:14:47;;;;;;;5.88;2.58;;;9.30;99.90;;;;;;4991657;28;20487;-77
2022/06/21 00:17:15;;;;;;;9.52;3.45;;;9.30;99.90;;;;;;4974217;28;20041;-77
2022/06/21 00:19:43;;;;;;;6.53;2.63;;;9.30;99.90;;;;;;4997392;23;20559;-83
2022/06/21 00:22:16;;;;;;;6.43;2.88;;;9.30;99.90;;;;;;4972789;28;20038;-83
2022/06/21 00:24:42;;;;;;;7.05;2.83;;;9.30;99.90;;;;;;4972950;28;20027;-83
2022/06/21 00:27:18;;;;;;;4.28;2.30;;;9.30;99.90;;;;;;4972933;28;20037;-83
2022/06/21 00:29:44;;;;;;;6.13;2.97;;;9.30;99.90;;;;;;4972950;28;20022;-83
2022/06/21 00:32:19;;;;;;;12.02;3.38;;;9.30;99.90;;;;;;4973156;28;20109;-82
2022/06/21 00:34:46;;;;;;;6.00;3.40;;;9.40;99.90;;;;;;4971537;28;20513;-83
2022/06/21 00:37:21;;;;;;;4.88;2.90;;;9.40;99.90;;;;;;4972623;28;20030;-83
2022/06/21 00:39:47;;;;;;;12.70;3.30;;;9.50;99.90;;;;;;4972926;28;20077;-83
2022/06/21 00:42:36;;;;;;;7.75;2.92;;;9.50;99.90;;;;;;4972940;28;20399;-82
2022/06/21 00:45:20;;;;;;;5.35;2.45;;;9.50;99.90;;;;;;4972671;28;20030;-83
2022/06/21 00:48:00;;;;;;;10.82;3.53;;;9.60;99.90;;;;;;4972436;28;20031;-83
2022/06/21 00:50:33;;;;;;;6.97;2.88;;;9.60;99.90;;;;;;4972220;28;20018;-83
2022/06/21 00:53:14;;;;;;;8.48;3.40;;;9.60;99.90;;;;;;4972643;28;20033;-83
2022/06/21 00:55:52;;;;;;;6.10;2.85;;;9.60;99.90;;;;;;4972219;28;20109;-83
2022/06/21 00:58:20;;;;;;;9.35;3.33;;;9.70;99.90;;;;;;4952043;28;20384;-84
2022/06/21 01:00:52;;;;;;;9.02;3.30;;;9.70;99.90;;;;;;4954835;28;20077;-83
2022/06/21 01:03:21;;;;;;;;;;;9.80;99.90;;;;;;4978646;28;20019;-83
2022/06/21 01:05:47;;;;;;;9.15;3.10;;;9.80;99.90;;;;;;4961410;28;20286;-83
2022/06/21 01:08:22;;;;;;;6.05;3.10;;;9.80;99.90;;;;;;4978830;28;20023;-82
2022/06/21 01:10:54;;;;;;;5.18;3.03;;;9.80;99.90;;;;;;4984707;28;20539;-82
2022/06/21 01:13:22;;;;;;;;;;;9.70;99.90;;;;;;4978498;28;20494;-83
2022/06/21 01:15:50;;;;;;;8.52;2.65;;;9.70;99.90;;;;;;4978426;28;19910;-82
2022/06/21 01:18:18;;;;;;;7.50;2.72;;;9.80;99.90;;;;;;4996968;23;20102;-76
2022/06/21 01:20:48;;;;;;;5.57;3.17;;;9.80;99.90;;;;;;4972117;28;20121;-77
2022/06/21 01:23:33;;;;;;;10.80;3.50;;;9.90;99.90;;;;;;4978423;28;20030;-77
2022/06/21 01:26:23;;;;;;;10.52;3.40;;;9.80;99.90;;;;;;4960591;28;20027;-77
2022/06/21 01:28:51;;;;;;;6.88;3.63;;;9.70;99.90;;;;;;4978486;28;20022;-77
2022/06/21 01:31:17;;;;;;;6.18;2.72;;;9.70;99.90;;;;;;4976464;28;20027;-77
2022/06/21 01:33:43;;;;;;;10.30;3.17;;;9.60;99.90;;;;;;4973779;28;20468;-77
2022/06/21 01:36:26;;;;;;;4.25;2.92;;;9.50;99.90;;;;;;4978106;28;20026;-77
2022/06/21 01:38:57;;;;;;;9.38;3.17;;;9.40;99.90;;;;;;4985150;28;20440;-77
2022/06/21 01:41:50;;;;;;;4.97;2.65;;;9.40;99.90;;;;;;4978448;28;20019;-77
2022/06/21 01:44:22;;;;;;;7.35;2.80;;;9.40;99.90;;;;;;4965279;28;20092;-77
2022/06/21 01:46:48;;;;;;;;;;;9.30;99.90;;;;;;4977431;28;20050;-77
2022/06/21 01:49:18;;;;;;;6.90;2.70;;;9.20;99.90;;;;;;4978244;28;20359;-77
2022/06/21 01:51:49;;;;;;;5.90;3.15;;;9.20;99.90;;;;;;4978501;28;20066;-77
2022/06/21 01:54:19;;;;;;;4.97;2.93;;;9.00;99.90;;;;;;4978410;28;20019;-77
2022/06/21 01:56:47;;;;;;;5.93;2.92;;;8.80;99.90;;;;;;4963906;28;20034;-76
2022/06/21 01:59:18;;;;;;;7.80;2.95;;;8.70;99.90;;;;;;4977890;28;20023;-77
2022/06/21 02:02:09;;;;;;;7.80;3.08;;;8.60;99.90;;;;;;4978173;28;20078;-77
2022/06/21 02:04:45;;;;;;;8.45;2.90;;;8.50;99.90;;;;;;4973026;28;20091;-76
2022/06/21 02:07:18;;;;;;;7.40;3.40;;;8.40;99.90;;;;;;4978435;28;20167;-76
2022/06/21 02:10:12;;;;;;;8.40;3.22;;;8.40;99.90;;;;;;4964236;28;20413;-76
2022/06/21 02:13:20;;;;;;;5.97;3.13;;;8.30;99.90;;;;;;4971792;28;20101;-76
2022/06/21 02:16:15;;;;;;;10.13;3.60;;;8.30;99.90;;;;;;4912425;29;20044;-77
2022/06/21 02:18:45;;;;;;;4.15;2.60;;;8.20;99.90;;;;;;4994930;22;20487;-82
2022/06/21 02:21:22;;;;;;;10.25;3.30;;;8.10;99.90;;;;;;4994277;28;20057;-82
2022/06/21 02:23:51;;;;;;;4.70;2.63;;;8.10;99.90;;;;;;4976985;28;20360;-82
2022/06/21 02:26:17;;;;;;;3.45;3.00;;;8.10;99.90;;;;;;4993498;28;20034;-82
2022/06/21 02:28:45;;;;;;;3.05;2.42;;;8.10;99.90;;;;;;4994514;28;20037;-82
2022/06/21 02:31:11;;;;;;;7.95;3.17;;;8.00;99.90;;;;;;4994262;28;20045;-82
2022/06/21 02:33:40;;;;;;;7.70;3.90;;;8.00;99.90;;;;;;4994097;28;20061;-82
2022/06/21 02:36:12;;;;;;;8.63;3.55;;;8.00;99.90;;;;;;5001059;28;20118;-82
2022/06/21 02:38:54;;;;;;;8.93;3.75;;;7.90;99.90;;;;;;4994226;28;20065;-82
2022/06/21 02:41:26;;;;;;;4.45;2.92;;;7.90;99.90;;;;;;4994387;28;20029;-82
2022/06/21 02:44:16;;;;;;;7.03;2.70;;;7.80;99.90;;;;;;4994214;28;20808;-82
2022/06/21 02:46:52;;;;;;;7.93;2.83;;;7.90;99.90;;;;;;4993969;28;20039;-82
2022/06/21 02:49:24;;;;;;;6.13;3.08;;;8.00;99.90;;;;;;4993273;28;20057;-82
2022/06/21 02:52:10;;;;;;;5.55;3.03;;;7.90;99.90;;;;;;4993575;28;20092;-82
2022/06/21 02:54:51;;;;;;;3.83;2.90;;;7.80;99.90;;;;;;4994082;28;20030;-82
2022/06/21 02:57:30;;;;;;;11.45;3.47;;;7.60;99.90;;;;;;4988516;28;20030;-82
2022/06/21 02:59:57;;;;;;;7.88;3.20;;;7.50;99.90;;;;;;4993586;28;20033;-81
2022/06/21 03:02:26;;;;;;;7.03;3.03;;;7.50;99.90;;;;;;4993868;28;20018;-82
2022/06/21 03:04:56;;;;;;;4.70;3.28;;;7.50;99.90;;;;;;4993715;28;20109;-82
2022/06/21 03:07:30;;;;;;;4.78;2.80;;;7.40;99.90;;;;;;4993761;28;20410;-82
2022/06/21 03:09:58;;;;;;;9.10;3.53;;;7.30;99.90;;;;;;4993461;28;20479;-82
2022/06/21 03:12:30;;;;;;;3.60;3.00;;;7.30;99.90;;;;;;4993701;28;20137;-82
2022/06/21 03:15:03;;;;;;;4.85;2.72;;;7.30;99.90;;;;;;4993401;28;20535;-82
2022/06/21 03:20:33;;;;;;;5.50;2.90;;;7.20;99.90;;;;;;4978037;28;20051;-77
2022/06/21 03:23:00;;;;;;;5.22;3.28;;;7.20;99.90;;;;;;4974075;28;20031;-77
2022/06/21 03:25:43;;;;;;;9.20;3.03;;;7.40;99.90;;;;;;4973315;28;20027;-77
2022/06/21 03:28:38;;;;;;;5.93;2.53;;;7.40;99.90;;;;;;4971302;28;20037;-77
2022/06/21 03:31:12;;;;;;;8.25;3.08;;;7.40;99.90;;;;;;4970250;28;20026;-77
2022/06/21 03:33:48;;;;;;;8.15;3.47;;;7.30;99.90;;;;;;4955981;28;20054;-77
2022/06/21 03:36:21;;;;;;;4.90;3.05;;;7.30;99.90;;;;;;4973444;28;20053;-77
2022/06/21 03:38:53;;;;;;;5.68;3.15;;;7.30;99.90;;;;;;4953158;28;20046;-77
2022/06/21 03:44:25;;;;;;;6.45;3.05;;;7.20;99.90;;;;;;4973942;28;20495;-77
2022/06/21 03:47:23;;;;;;;6.63;3.15;;;7.30;99.90;;;;;;4973047;28;20050;-77
2022/06/21 03:50:00;;;;;;;6.28;3.45;;;7.30;99.90;;;;;;4950051;28;20030;-77
2022/06/21 03:53:00;;;;;;;4.47;2.88;;;7.30;99.90;;;;;;4980067;28;20734;-77
2022/06/21 03:55:44;;;;;;;7.95;3.08;;;7.20;99.90;;;;;;4968279;28;20023;-77
2022/06/21 03:58:15;;;;;;;5.50;3.40;;;7.10;99.90;;;;;;4972999;28;20375;-77
2022/06/21 04:00:56;;;;;;;5.45;3.60;;;7.10;99.90;;;;;;4966615;28;20022;-77
2022/06/21 04:03:28;;;;;;;3.92;3.05;;;7.20;99.90;;;;;;4965046;28;20027;-77
2022/06/21 04:06:02;;;;;;;4.70;3.40;;;7.30;99.90;;;;;;4972948;28;20026;-77
2022/06/21 04:08:39;;;;;;;7.10;3.67;;;7.30;99.90;;;;;;4973280;28;20031;-77
2022/06/21 04:11:25;;;;;;;6.50;3.47;;;7.30;99.90;;;;;;4973026;28;20511;-77
2022/06/21 04:13:56;;;;;;;7.65;3.42;;;7.30;99.90;;;;;;4973006;28;20151;-77
2022/06/21 04:16:35;;;;;;;10.65;3.38;;;7.30;99.90;;;;;;4972526;28;20045;-77
2022/06/21 04:19:10;;;;;;;7.20;3.05;;;7.40;99.90;;;;;;4989860;23;20058;-82
2022/06/21 04:21:45;;;;;;;5.30;3.10;;;7.40;99.90;;;;;;4964831;28;20050;-81
2022/06/21 04:24:18;;;;;;;7.78;3.45;;;7.50;99.90;;;;;;4972845;28;20419;-81
2022/06/21 04:26:54;;;;;;;6.45;3.40;;;7.50;99.90;;;;;;4968797;28;20019;-81
2022/06/21 04:29:42;;;;;;;9.18;4.00;;;7.50;99.90;;;;;;4972241;28;20058;-81
2022/06/21 04:32:16;;;;;;;5.55;3.42;;;7.60;99.90;;;;;;4955276;28;20018;-81
2022/06/21 04:34:50;;;;;;;7.00;4.03;;;7.60;99.90;;;;;;4972397;28;20019;-81
2022/06/21 04:37:24;;;;;;;8.05;3.45;;;7.70;99.90;;;;;;4971708;28;20030;-81
2022/06/21 04:40:17;;;;;;;5.28;3.85;;;7.70;99.90;;;;;;4967031;28;20026;-80
2022/06/21 04:43:08;;;;;;;5.70;4.30;;;7.90;99.90;;;;;;4968256;28;20031;-81
2022/06/21 04:45:46;;;;;;;8.55;4.22;;;8.20;99.90;;;;;;4972566;28;20019;-81
2022/06/21 04:48:24;;;;;;;6.93;3.67;;;8.30;99.90;;;;;;4972265;28;20015;-81
2022/06/21 04:51:11;;;;;;;6.13;3.80;;;8.50;99.90;;;;;;4972401;28;20029;-81
2022/06/21 04:53:49;;;;;;;6.80;4.10;;;8.70;99.90;;;;;;4972754;28;20023;-81
2022/06/21 04:56:17;;;;;;;7.22;4.07;;;8.80;99.90;;;;;;4972199;28;20031;-81
2022/06/21 04:58:46;;;;;;;7.55;3.75;;;8.90;99.90;;;;;;4972350;28;20018;-81
2022/06/21 05:01:30;;;;;;;7.10;4.30;;;9.10;99.90;;;;;;4972325;28;20022;-81
2022/06/21 05:04:18;;;;;;;10.07;4.03;;;9.20;99.90;;;;;;4972037;28;20479;-81
2022/06/21 05:06:45;;;;;;;9.48;3.95;;;9.40;99.90;;;;;;4972036;28;20038;-81
2022/06/21 05:09:18;;;;;;;11.00;4.78;;;9.50;99.90;;;;;;4972386;28;20154;-81
2022/06/21 05:11:45;;;;;;;5.28;3.13;;;9.60;99.90;;;;;;4972308;28;20023;-81
2022/06/21 05:14:35;;;;;;;4.63;3.58;;;9.70;99.90;;;;;;4972370;28;20018;-81
2022/06/21 05:17:01;;;;;;;7.50;2.92;;;9.80;99.90;;;;;;4965938;28;20034;-81
2022/06/21 05:19:35;;;;;;;8.38;4.10;;;9.90;99.90;;;;;;5008164;23;20042;-77
2022/06/21 05:22:24;;;;;;;8.00;4.40;;;10.10;99.90;;;;;;4991155;28;20121;-77
2022/06/21 05:24:51;;;;;;;9.55;4.63;;;10.20;99.90;;;;;;5009604;28;20061;-77
2022/06/21 05:27:40;;;;;;;12.80;5.80;;;10.30;99.90;;;;;;5009350;28;20025;-77
2022/06/21 05:30:06;;;;;;;11.82;5.03;;;10.40;99.90;;;;;;5009382;28;20022;-77
2022/06/21 05:32:39;;;;;;;8.30;3.65;;;10.60;99.90;;;;;;5009600;28;20010;-77
2022/06/21 05:35:13;;;;;;;7.95;3.97;;;10.70;99.90;;;;;;5009483;28;20018;-77
2022/06/21 05:38:01;;;;;;;7.93;3.63;;;10.80;99.90;;;;;;5009495;28;20026;-77
2022/06/21 05:40:50;;;;;;;8.00;4.10;;;10.80;99.90;;;;;;5009422;28;20046;-77
2022/06/21 05:43:26;;;;;;;4.65;3.45;;;10.90;99.90;;;;;;5009680;28;20014;-77
2022/06/21 05:45:58;;;;;;;7.95;3.88;;;11.00;99.90;;;;;;4991524;28;20018;-77
2022/06/21 05:48:27;;;;;;;6.57;3.83;;;11.10;99.90;;;;;;5010925;28;20021;-77
2022/06/21 05:50:53;;;;;;;6.70;3.65;;;11.20;99.90;;;;;;5013348;28;20022;-77
2022/06/21 05:53:30;;;;;;;9.57;3.65;;;11.40;99.90;;;;;;5013205;28;20026;-77
2022/06/21 05:56:00;;;;;;;7.90;3.70;;;11.50;99.90;;;;;;5012670;28;20413;-77
2022/06/21 05:58:32;;;;;;;8.60;3.90;;;11.60;99.90;;;;;;5012559;28;20026;-77
2022/06/21 06:01:03;;;;;;;;;;;11.80;99.90;;;;;;5013050;28;20075;-77
2022/06/21 06:03:44;;;;;;;5.45;3.50;;;11.90;99.90;;;;;;5012474;28;19913;-77
2022/06/21 06:06:15;;;;;;;5.90;3.33;;;12.00;99.90;;;;;;5006883;28;20524;-77
2022/06/21 06:08:49;;;;;;;6.15;3.60;;;12.20;99.90;;;;;;5012612;28;20062;-77
2022/06/21 06:11:21;;;;;;;8.00;3.20;;;12.30;99.90;;;;;;5012395;28;20018;-77
2022/06/21 06:13:49;;;;;;;6.72;3.33;;;12.40;99.90;;;;;;5012673;28;20117;-77
2022/06/21 06:16:23;;;;;;;12.20;3.47;;;12.50;99.90;;;;;;5012805;28;20041;-77
2022/06/21 06:18:54;;;;;;;8.20;3.40;;;12.60;99.90;;;;;;5017467;23;20054;-83
2022/06/21 06:21:30;;;;;;;7.32;3.75;;;12.60;99.90;;;;;;4994717;28;20502;-83
2022/06/21 06:24:04;;;;;;;9.18;3.45;;;12.60;99.90;;;;;;4994526;28;20022;-83
2022/06/21 06:26:35;;;;;;;9.52;3.83;;;12.60;99.90;;;;;;4993534;28;20073;-83
2022/06/21 06:29:31;;;;;;;6.88;3.38;;;12.60;99.90;;;;;;4994363;28;20026;-82
2022/06/21 06:32:19;;;;;;;8.20;3.53;;;12.70;99.90;;;;;;4977586;28;20117;-82
2022/06/21 06:34:51;;;;;;;8.70;4.90;;;12.90;99.90;;;;;;4994146;28;20463;-82
2022/06/21 06:37:30;;;;;;;13.95;4.65;;;13.20;99.90;;;;;;4994254;28;20058;-82
2022/06/21 06:39:57;;;;;;;8.05;4.32;;;13.60;99.90;;;;;;4989035;28;20031;-83
2022/06/21 06:42:27;;;;;;;10.70;4.63;;;13.70;99.90;;;;;;4993723;28;20469;-83
2022/06/21 06:45:06;;;;;;;12.52;3.90;;;13.80;99.90;;;;;;4993732;28;20033;-83
2022/06/21 06:47:38;;;;;;;9.55;3.80;;;14.10;99.90;;;;;;4993425;28;20022;-82
2022/06/21 06:50:09;;;;;;;7.15;3.47;;;14.20;99.90;;;;;;4993091;28;20026;-83
2022/06/21 06:52:50;;;;;;;10.68;3.47;;;14.40;99.90;;;;;;4994024;28;20146;-82
2022/06/21 06:55:39;;;;;;;11.15;3.45;;;14.40;99.90;;;;;;4987745;28;20026;-83
2022/06/21 06:58:27;;;;;;;8.10;3.70;;;14.40;99.90;;;;;;4990994;28;20030;-83
2022/06/21 07:00:57;;;;;;;7.03;3.28;;;14.30;99.90;;;;;;4987692;28;20037;-81
2022/06/21 07:03:27;;;;;;;8.00;3.35;;;14.20;99.90;;;;;;4987706;28;20110;-91
2022/06/21 07:06:10;;;;;;;7.20;3.20;;;14.20;99.90;;;;;;5001943;28;20018;-86
2022/06/21 07:08:49;;;;;;;5.45;3.60;;;14.30;99.90;;;;;;5001468;28;20022;-87
2022/06/21 07:11:29;;;;;;;5.45;3.03;;;14.40;99.90;;;;;;4994368;28;20053;-81
2022/06/21 07:13:56;;;;;;;5.55;3.17;;;14.50;99.90;;;;;;4993948;28;20030;-81
2022/06/21 07:16:24;;;;;;;8.40;3.13;;;14.60;99.90;;;;;;4993798;28;20637;-81
2022/06/21 07:18:53;;;;;;;10.88;3.42;;;14.70;99.90;;;;;;5010082;22;21936;-78
2022/06/21 07:21:21;;;;;;;8.10;3.30;;;14.90;99.90;;;;;;4975673;28;20038;-77
2022/06/21 07:23:48;;;;;;;10.80;3.17;;;15.10;99.90;;;;;;4974274;28;20026;-78
2022/06/21 07:26:31;;;;;;;7.03;3.47;;;15.20;99.90;;;;;;4973480;28;20026;-78
2022/06/21 07:28:57;;;;;;;7.65;2.70;;;15.40;99.90;;;;;;4968639;28;20030;-77
2022/06/21 07:31:31;;;;;;;5.90;2.92;;;15.60;99.90;;;;;;4974036;28;20392;-77
2022/06/21 07:34:33;;;;;;;7.90;2.95;;;15.80;99.90;;;;;;4973312;28;20069;-77
2022/06/21 07:37:13;;;;;;;7.80;3.13;;;16.10;99.90;;;;;;4961690;28;20054;-78
2022/06/21 07:39:51;;;;;;;6.57;2.83;;;16.20;99.90;;;;;;4973522;28;20050;-78
2022/06/21 07:42:26;;;;;;;8.90;3.50;;;16.40;99.90;;;;;;4974061;28;20015;-78
2022/06/21 07:45:10;;;;;;;6.72;2.92;;;16.60;99.90;;;;;;4973719;28;20038;-78
2022/06/21 07:47:44;;;;;;;4.80;2.60;;;16.80;99.90;;;;;;4972716;28;20073;-77
2022/06/21 07:50:28;;;;;;;5.30;3.05;;;17.00;99.90;;;;;;4973376;28;20023;-77
2022/06/21 07:53:08;;;;;;;7.95;3.17;;;17.20;99.90;;;;;;4969985;28;20081;-77
2022/06/21 07:55:40;;;;;;;5.60;2.70;;;17.30;99.90;;;;;;4980269;28;20037;-76
2022/06/21 07:58:17;;;;;;;8.70;3.03;;;17.30;99.90;;;;;;4972211;28;20038;-77
2022/06/21 08:06:44;;;;;;;8.45;2.80;;;18.20;99.90;;;;;;4967942;28;20085;-76
2022/06/21 08:09:13;;;;;;;4.72;2.45;;;18.30;99.90;;;;;;4972228;28;20077;-77
2022/06/21 08:11:41;;;;;;;6.50;3.00;;;18.30;99.90;;;;;;4970756;28;20101;-79
2022/06/21 08:14:09;;;;;;;6.70;2.60;;;18.50;99.90;;;;;;4954334;28;20040;-79
2022/06/21 08:16:43;;;;;;;4.72;2.85;;;18.50;99.90;;;;;;4971770;28;20382;-81
2022/06/21 08:19:35;;;;;;;6.28;2.13;;;18.70;99.90;;;;;;4994706;23;20482;-76
2022/06/21 08:22:13;;;;;;;4.88;2.80;;;18.80;99.90;;;;;;4976754;28;20554;-78
2022/06/21 08:24:52;;;;;;;9.88;3.40;;;18.90;99.90;;;;;;4972265;28;20101;-77
2022/06/21 08:27:23;;;;;;;5.97;2.80;;;18.90;99.90;;;;;;4971751;28;20122;-77
2022/06/21 08:29:57;;;;;;;;;;;18.80;99.90;;;;;;4972794;28;20068;-78
2022/06/21 08:32:33;;;;;;;6.65;2.60;;;18.60;99.90;;;;;;4954646;28;19912;-77
2022/06/21 08:35:17;;;;;;;5.53;2.35;;;18.70;99.90;;;;;;4969625;28;20558;-77
2022/06/21 08:38:10;;;;;;;3.35;1.98;;;19.10;99.90;;;;;;4971888;28;20046;-78
2022/06/21 08:41:07;;;;;;;4.70;2.15;;;19.70;99.90;;;;;;4949288;28;20063;-77
2022/06/21 08:43:46;;;;;;;4.45;1.70;;;20.20;99.90;;;;;;4965658;28;20031;-77
2022/06/21 08:46:49;;;;;;;3.72;1.80;;;20.60;99.90;;;;;;4964522;28;20019;-77
2022/06/21 08:49:55;;;;;;;4.28;1.98;;;20.90;98.10;;;;;;4966642;28;20674;-81
2022/06/21 08:52:23;;;;;;;2.47;1.30;;;21.10;93.40;;;;;;4955454;28;20046;-81
2022/06/21 08:55:02;;;;;;;2.53;1.60;;;21.30;90.10;;;;;;4971817;28;20026;-79
2022/06/21 08:57:54;;;;;;;2.42;1.30;;;21.10;86.40;;;;;;4971649;28;20113;-81
2022/06/21 09:00:35;;;;;;;4.57;1.48;;;21.20;81.50;;;;;;4956082;28;20035;-80
2022/06/21 09:03:31;;;;;;;2.05;0.80;;;21.00;81.20;;;;;;4971576;28;20053;-89
2022/06/21 09:06:38;;;;;;;3.97;1.30;;;21.30;76.20;;;;;;4972208;28;20066;-85
2022/06/21 09:09:35;;;;;;;2.80;1.33;;;21.40;82.30;;;;;;4955099;28;20531;-82
2022/06/21 09:12:07;;;;;;;4.70;1.30;;;21.60;91.20;;;;;;4968616;28;20030;-82
2022/06/21 09:14:57;;;;;;;3.40;1.42;;;21.70;81.80;;;;;;4955577;28;20031;-81
2022/06/21 09:17:34;;;;;;;3.45;1.30;;;21.80;89.50;;;;;;4966925;28;20376;-86
2022/06/21 09:20:39;;;;;;;2.63;1.27;;;22.20;84.40;;;;;;4988220;22;20491;-85
2022/06/21 09:23:15;;;;;;;3.55;1.20;;;22.10;86.30;;;;;;4969972;28;20031;-81
2022/06/21 09:25:46;;;;;;;3.03;1.15;;;21.80;87.40;;;;;;4975174;28;20030;-82
2022/06/21 09:28:28;;;;;;;1.52;0.90;;;21.60;76.60;;;;;;4974392;28;20106;-82
2022/06/21 09:31:03;;;;;;;3.28;1.48;;;21.80;78.20;;;;;;4951902;28;20670;-80
2022/06/21 09:33:47;;;;;;;6.88;1.60;;;21.90;74.10;;;;;;4981769;28;20034;-81
2022/06/21 09:36:22;;;;;;;1.65;1.55;;;21.70;78.60;;;;;;4964647;28;20126;-81
2022/06/21 09:39:09;;;;;;;3.03;1.50;;;21.50;73.30;;;;;;4975500;28;20026;-80
2022/06/21 09:42:22;;;;;;;6.15;1.15;;;22.10;75.60;;;;;;4974807;28;20019;-80
2022/06/21 09:44:59;;;;;;;2.50;1.25;;;22.20;69.40;;;;;;4923893;28;20054;-79
2022/06/21 09:47:40;;;;;;;2.05;1.20;;;22.80;71.60;;;;;;4974951;28;20033;-79
2022/06/21 09:50:25;;;;;;;3.22;1.67;;;23.10;69.10;;;;;;4969419;28;20030;-80
2022/06/21 09:53:14;;;;;;;3.42;1.25;;;22.90;65.70;;;;;;4974879;28;20069;-80
2022/06/21 09:55:51;;;;;;;3.20;1.00;;;23.10;67.90;;;;;;4969551;28;20054;-79
2022/06/21 09:58:20;;;;;;;3.67;1.30;;;23.10;69.40;;;;;;4974701;28;20062;-80
2022/06/21 10:00:57;;;;;;;2.97;1.20;;;23.30;66.50;;;;;;4965982;28;20383;-80
2022/06/21 10:03:49;;;;;;;3.25;1.40;;;23.70;66.90;;;;;;4974552;28;20023;-80
2022/06/21 10:06:32;;;;;;;4.63;1.38;;;24.10;64.20;;;;;;4957174;28;20034;-80
2022/06/21 10:08:57;;;;;;;3.35;1.15;;;24.30;65.60;;;;;;4967766;28;20034;-80
2022/06/21 10:11:42;;;;;;;2.55;0.88;;;24.60;61.40;;;;;;4974605;28;20493;-80
2022/06/21 10:14:41;;;;;;;4.38;1.30;;;24.70;61.70;;;;;;4974411;28;20342;-80
2022/06/21 10:17:37;;;;;;;2.38;1.35;;;24.60;60.70;;;;;;4968500;28;20057;-78
2022/06/21 10:20:13;;;;;;;4.82;1.30;;;24.80;56.50;;;;;;4975408;28;20069;-78
2022/06/21 10:22:48;;;;;;;2.15;1.20;;;24.80;59.80;;;;;;4967639;28;20023;-78
2022/06/21 10:25:35;;;;;;;1.38;1.20;;;24.90;59.00;;;;;;4975358;28;20530;-78
2022/06/21 10:28:04;;;;;;;5.07;1.02;;;25.10;59.30;;;;;;4956447;28;20399;-78
2022/06/21 10:30:43;;;;;;;3.33;1.33;;;25.20;58.10;;;;;;4975080;28;20023;-78
2022/06/21 10:33:38;;;;;;;3.67;1.25;;;25.30;57.20;;;;;;4974945;28;20074;-79
2022/06/21 10:36:24;;;;;;;4.10;1.10;;;25.60;55.20;;;;;;4960221;28;20126;-79
2022/06/21 10:39:27;;;;;;;2.83;0.90;;;25.30;55.60;;;;;;4960468;28;20008;-79
2022/06/21 10:45:41;;;;;;;3.88;1.08;;;26.20;56.30;;;;;;4974563;28;20387;-79
2022/06/21 10:48:41;;;;;;;5.22;1.20;;;26.20;54.70;;;;;;4968357;28;20746;-79
2022/06/21 10:51:09;;;;;;;2.78;1.30;;;26.50;52.50;;;;;;4970133;28;20057;-79
2022/06/21 10:53:48;;;;;;;4.90;1.30;;;25.80;53.70;;;;;;4974245;28;20027;-79
2022/06/21 10:59:25;;;;;;;2.75;1.20;;;25.80;55.10;;;;;;4973495;28;20593;-79
2022/06/21 11:02:06;;;;;;;;;;;25.90;56.60;;;;;;4974671;28;20494;-79
2022/06/21 11:04:57;;;;;;;1.88;0.90;;;26.10;51.70;;;;;;4968810;28;20389;-79
2022/06/21 11:07:41;;;;;;;2.85;0.90;;;26.20;54.00;;;;;;4969295;28;20035;-79
2022/06/21 11:10:20;;;;;;;1.30;0.88;;;26.50;51.00;;;;;;4972632;28;20027;-79
2022/06/21 11:12:56;;;;;;;4.10;0.95;;;26.70;50.20;;;;;;4952518;28;20078;-79
2022/06/21 11:15:46;;;;;;;2.75;0.90;;;26.80;54.10;;;;;;4973981;28;20011;-79
2022/06/21 11:18:17;;;;;;;2.42;0.82;;;27.10;51.90;;;;;;4968734;28;20019;-79
2022/06/21 11:21:15;;;;;;;4.07;0.93;;;27.00;50.20;;;;;;4980586;28;20037;-79
2022/06/21 11:24:06;;;;;;;3.58;0.73;;;27.10;49.50;;;;;;4962478;28;20150;-81
2022/06/21 11:27:14;;;;;;;1.33;1.10;;;26.80;52.00;;;;;;4964334;28;20443;-82
2022/06/21 11:29:56;;;;;;;3.42;1.17;;;26.70;50.50;;;;;;4931911;28;20066;-81
2022/06/21 11:32:44;;;;;;;3.45;0.85;;;26.50;53.30;;;;;;4969625;28;20023;-81
2022/06/21 11:35:43;;;;;;;2.72;1.10;;;26.90;50.90;;;;;;4952464;28;20023;-82
2022/06/21 11:38:39;;;;;;;3.10;0.90;;;27.20;55.80;;;;;;4971026;28;20030;-81
2022/06/21 11:42:04;;;;;;;3.20;1.15;;;27.30;48.50;;;;;;4965909;28;20034;-82
2022/06/21 11:44:12;;;;;;;4.63;1.40;;;27.00;51.10;;;;;;4969972;28;20078;-81
2022/06/21 11:46:48;;;;;;;3.63;0.95;;;27.30;49.20;;;;;;4969075;28;20046;-82
2022/06/21 11:49:26;;;;;;;2.08;0.90;;;27.40;52.50;;;;;;4952003;28;20027;-81
2022/06/21 11:52:11;;;;;;;4.07;0.98;;;28.00;47.30;;;;;;4952518;28;20038;-82
2022/06/21 11:54:47;;;;;;;1.27;0.73;;;27.90;50.10;;;;;;4964469;28;20425;-81
2022/06/21 11:57:25;;;;;;;3.33;0.80;;;28.20;44.30;;;;;;4969092;28;20034;-81
2022/06/21 12:00:00;;;;;;;4.63;0.47;;;27.90;41.40;;;;;;4962934;28;20138;-80
2022/06/21 12:02:32;;;;;;;1.33;0.60;;;27.90;42.10;;;;;;4969173;28;20030;-80
2022/06/21 12:05:09;;;;;;;2.92;0.80;;;27.70;42.50;;;;;;4971410;28;20121;-80
2022/06/21 12:07:44;;;;;;;2.42;0.75;;;27.90;42.90;;;;;;4972200;28;20097;-80
2022/06/21 12:10:20;;;;;;;2.13;0.95;;;27.70;42.60;;;;;;4969548;28;20027;-82
2022/06/21 12:12:57;;;;;;;2.15;0.75;;;27.40;42.90;;;;;;4969387;28;20492;-82
2022/06/21 12:15:45;;;;;;;0.90;0.75;;;27.70;45.00;;;;;;4963659;28;20027;-82
2022/06/21 12:18:20;;;;;;;2.58;1.10;;;27.60;43.60;;;;;;4963929;28;20023;-81
2022/06/21 12:20:45;;;;;;;3.13;1.38;;;27.70;43.60;;;;;;4951850;28;20042;-80
2022/06/21 12:23:27;;;;;;;1.17;0.80;;;27.70;45.80;;;;;;4968327;28;20467;-80
2022/06/21 12:25:54;;;;;;;4.88;0.90;;;27.70;45.00;;;;;;4968801;28;20061;-81
2022/06/21 12:28:25;;;;;;;2.78;0.80;;;28.20;45.90;;;;;;4967944;28;20136;-80
2022/06/21 12:30:52;;;;;;;2.42;0.63;;;28.80;44.40;;;;;;4968561;28;20027;-80
2022/06/21 12:33:23;;;;;;;4.00;1.00;;;29.10;44.40;;;;;;4969175;28;20027;-81
2022/06/21 12:36:13;;;;;;;3.17;1.10;;;29.10;42.60;;;;;;4970343;28;20053;-86
2022/06/21 12:38:59;;;;;;;1.73;0.82;;;28.80;40.70;;;;;;4966114;28;20038;-80
2022/06/21 12:41:54;;;;;;;2.95;0.93;;;28.80;43.00;;;;;;4968588;28;20030;-80
2022/06/21 12:44:29;;;;;;;1.83;0.70;;;28.90;40.50;;;;;;4966257;28;20046;-80
2022/06/21 12:47:00;;;;;;;1.30;0.80;;;29.30;42.50;;;;;;4950499;28;20034;-79
2022/06/21 12:50:07;;;;;;;1.42;1.08;;;29.30;41.90;;;;;;4975072;28;20023;-80
2022/06/21 12:52:44;;;;;;;1.70;0.90;;;29.10;40.90;;;;;;4935369;28;20081;-79
2022/06/21 12:55:45;;;;;;;1.90;0.82;;;28.70;41.60;;;;;;4968342;28;20671;-80
2022/06/21 12:58:41;;;;;;;0.73;0.52;;;29.00;41.00;;;;;;4873502;29;20103;-79
2022/06/21 13:01:48;;;;;;;2.60;0.70;;;29.50;40.00;;;;;;4964303;28;20054;-79
2022/06/21 13:04:41;;;;;;;1.00;0.50;;;29.10;39.20;;;;;;4967581;28;20871;-80
2022/06/21 13:07:28;;;;;;;3.30;0.50;;;29.50;39.60;;;;;;4961185;28;20415;-79
2022/06/21 13:10:00;;;;;;;1.52;0.70;;;29.30;40.20;;;;;;4962536;28;20615;-80
2022/06/21 13:12:47;;;;;;;2.72;0.82;;;29.50;40.80;;;;;;4968079;28;20066;-79
2022/06/21 13:15:48;;;;;;;2.28;1.00;;;29.70;39.30;;;;;;4968780;28;20081;-79
2022/06/21 13:18:38;;;;;;;3.92;1.23;;;30.40;42.10;;;;;;4963373;28;20027;-79
2022/06/21 13:21:10;;;;;;;1.55;0.57;;;30.50;41.90;;;;;;4962989;28;20387;-79
2022/06/21 13:24:10;;;;;;;3.85;2.08;;;30.00;38.90;;;;;;4971861;28;20479;-80
2022/06/21 13:27:08;;;;;;;1.92;0.70;;;30.00;41.60;;;;;;4963879;28;20157;-78
2022/06/21 13:30:08;;;;;;;4.25;0.90;;;29.30;42.00;;;;;;4968124;28;20035;-79
2022/06/21 13:32:53;;;;;;;1.15;0.70;;;29.10;41.00;;;;;;4967125;28;20062;-78
2022/06/21 13:35:32;;;;;;;1.92;0.85;;;28.10;42.00;;;;;;4951864;28;20090;-78
2022/06/21 13:38:11;;;;;;;1.55;0.90;;;28.00;46.80;;;;;;4968017;28;20034;-80
2022/06/21 13:40:44;;;;;;;1.65;1.05;;;28.40;47.10;;;;;;4967735;28;20027;-81
2022/06/21 13:43:30;;;;;;;2.17;0.90;;;29.40;44.70;;;;;;4964781;28;20113;-81
2022/06/21 13:46:24;;;;;;;1.23;0.80;;;30.40;43.70;;;;;;4967585;28;20053;-80
2022/06/21 13:48:56;;;;;;;1.65;0.98;;;30.20;41.70;;;;;;4960419;28;20035;-80
2022/06/21 13:51:30;;;;;;;2.55;1.10;;;30.20;40.00;;;;;;4946982;28;20077;-80
2022/06/21 13:54:05;;;;;;;1.20;0.80;;;30.20;39.40;;;;;;4966468;28;20038;-80
2022/06/21 13:56:44;;;;;;;2.08;0.88;;;30.70;42.30;;;;;;4948540;28;20042;-79
2022/06/21 13:59:14;;;;;;;1.02;0.75;;;31.30;41.00;;;;;;4965276;28;20489;-81
2022/06/21 14:01:47;;;;;;;1.98;0.90;;;31.30;40.00;;;;;;4969954;28;20065;-79
2022/06/21 14:04:32;;;;;;;2.40;1.02;;;31.40;40.20;;;;;;4969914;28;20051;-79
2022/06/21 14:07:18;;;;;;;2.85;1.00;;;31.80;39.20;;;;;;4971313;28;20027;-79